Details From WMKK - Kuala Lumpur Intl - Sepang
To VCBI - Bandaranaike Intl Colombo
Flight Number -
Tags Generated
Created
Modified
Stats Distance 1,333 nm / 2,468 km
Max Altitude 0 ft / 0 m
Waypoints 3
Social Downloads 0
Likes 0
Share VATSIM

Download

Looking for another format? Having issues loading an existing format? Contact us
Advertisement - Login to hide

Notes

Generated

Route

WMKK KAT VCBI

ID Type Via Altitude Latitude Longitude Leg Dist Tot Dist Heading (true) Name
O WMKK APT - 0 ft / 0 m 2.77828˚ 101.70172˚ - 0 nm - -
KAT VOR - 0 ft / 0 m 7.16127˚ 79.86850˚ 1332 nm 1332 nm 282° / 280° BANDARANAIKE VOR-DME
O VCBI APT - 0 ft / 0 m 7.16874˚ 79.87491˚ 0 nm 1332 nm 40° / 40° -

Altitude Profile

Advertisement - Login to hide

Weather


0- 5 10 15 20 25 30 35+ Temperature / ° C

Clouds and Precipitation
Forecast for 2017-12-19 00:00 UTC. Updated an hour ago

Ground ~20,000 ft ~40,000 ft Winds

WMKK

Details ICAO WMKK (KUL)
Name Kuala Lumpur Intl - Sepang
Region Malaysia (Peninsular Malaysia)
Timezone Asia/Kuala_Lumpur (UTC+8.0)
Stats Elevation 70 ft / 21 m (AMSL)
Location 2.745578° 101.709913°
Runways 2
Magnetic Variation 0.000° E

METAR

WMKK 182230Z 02004KT 330V060 9999 FEW030 BKN280 25/21 Q1010 NOSIG

Decode

TAF

Not found

Departure Runways

ID Width Length Bearing (true) Bearing (mag) Surface Threshold Offset Overrun Length
14L 197 ft / 60 m 13,577 ft / 4,138 m 146.13° 146.13° Asphalt 500 ft / 152 m 0 ft / 0 m
14R 197 ft / 60 m 13,337 ft / 4,065 m 146.22° 146.22° Asphalt 500 ft / 152 m 0 ft / 0 m
32L 197 ft / 60 m 13,337 ft / 4,065 m 326.22° 326.22° Asphalt 500 ft / 152 m 0 ft / 0 m
32R 197 ft / 60 m 13,577 ft / 4,138 m 326.13° 326.13° Asphalt 500 ft / 152 m 0 ft / 0 m

VCBI

Details ICAO VCBI (CMB)
Name BANDARANAIKE INTL COLOMBO
Region Sri Lanka
Timezone Asia/Colombo (UTC+5.5)
Stats Elevation 30 ft / 9 m (AMSL)
Location 7.180754° 79.884118°
Runways 1
Magnetic Variation 2.067° W

METAR

VCBI 182210Z 04007KT 9000 SKC 23/20 Q1011 NOSIG

Decode

TAF

Not found

Destination Runways

ID Width Length Bearing (true) Bearing (mag) Surface Threshold Offset Overrun Length
04 148 ft / 45 m 11,018 ft / 3,358 m 37.25° 39.32° Asphalt 0 ft / 0 m 215 ft / 66 m
22 148 ft / 45 m 11,018 ft / 3,358 m 217.25° 219.32° Asphalt 0 ft / 0 m 300 ft / 91 m

Approach Navaids

Runway Type Ident Frequency Range Bearing (true) Bearing (mag) Slope Elevation
04 Localiser IKW 109.90 MHz 18 nm / 33 km 36.30° 38.37° - 27 ft / 8 m (AMSL)
04 Glidescope IKW 109.90 MHz 10 nm / 19 km 37.25° 39.31° 3.00° 24 ft / 7 m (AMSL)
04 DME IKW 109.90 MHz 18 nm / 33 km - - - 39 ft / 12 m (AMSL)
22 Localiser IKA 110.30 MHz 18 nm / 33 km 218.17° 220.23° - 25 ft / 8 m (AMSL)
22 Glidescope IKA 110.30 MHz 10 nm / 19 km 217.25° 219.31° 3.00° 24 ft / 7 m (AMSL)
22 DME IKA 110.30 MHz 18 nm / 33 km - - - 24 ft / 7 m (AMSL)

Popular Alternatives